createdAt,value
2024-01-11T00:01:13.452Z,102906.22
2024-01-11T00:03:40.003Z,102909.47
2024-01-11T00:06:06.642Z,102912.72
2024-01-11T00:08:33.373Z,102916.84
2024-01-11T00:10:59.971Z,102909.38
2024-01-11T00:13:26.493Z,102909.22
2024-01-11T00:15:53.162Z,102912.50
2024-01-11T00:18:20.280Z,102910.78
2024-01-11T00:20:46.919Z,102902.97
2024-01-11T00:23:13.520Z,102906.97
2024-01-11T00:25:40.107Z,102916.72
2024-01-11T00:28:06.791Z,102926.59
2024-01-11T00:30:33.531Z,102902.31
2024-01-11T00:33:00.349Z,102894.63
2024-01-11T00:35:27.201Z,102887.16
2024-01-11T00:37:53.833Z,102893.88
2024-01-11T00:40:20.401Z,102889.84
2024-01-11T00:42:47.072Z,102880.13
2024-01-11T00:45:13.613Z,102874.38
2024-01-11T00:47:40.229Z,102888.00
2024-01-11T00:50:07.246Z,102875.75
2024-01-11T00:52:33.906Z,102866.03
2024-01-11T00:55:00.386Z,102855.50
2024-01-11T00:57:26.919Z,102860.69
2024-01-11T00:59:53.428Z,102859.91
2024-01-11T01:02:21.278Z,102849.41
2024-01-11T01:04:47.795Z,102847.91
2024-01-11T01:07:14.568Z,102847.41
2024-01-11T01:09:41.166Z,102830.09
2024-01-11T01:12:07.681Z,102843.50
2024-01-11T01:14:34.667Z,102839.41
2024-01-11T01:17:01.253Z,102837.25
2024-01-11T01:19:27.948Z,102825.72
2024-01-11T01:21:54.534Z,102815.97
2024-01-11T01:24:21.046Z,102823.56
2024-01-11T01:26:47.648Z,102826.94
2024-01-11T01:29:15.504Z,102828.75
2024-01-11T01:31:42.079Z,102828.94
2024-01-11T01:34:08.890Z,102821.59
2024-01-11T01:36:35.520Z,102825.03
2024-01-11T01:39:02.002Z,102823.50
2024-01-11T01:41:28.568Z,102839.56
2024-01-11T01:43:55.160Z,102835.44
2024-01-11T01:46:24.618Z,102847.38
2024-01-11T01:48:53.056Z,102841.69
2024-01-11T01:51:19.780Z,102834.31
2024-01-11T01:53:46.661Z,102824.34
2024-01-11T01:56:14.021Z,102823.59
2024-01-11T01:58:40.739Z,102827.81
2024-01-11T02:01:10.124Z,102817.81
2024-01-11T02:03:38.876Z,102804.47
2024-01-11T02:06:06.438Z,102813.53
2024-01-11T02:08:33.128Z,102823.59
2024-01-11T02:11:02.965Z,102841.78
2024-01-11T02:13:29.539Z,102834.31
2024-01-11T02:15:56.058Z,102841.59
2024-01-11T02:18:22.652Z,102834.88
2024-01-11T02:20:49.324Z,102860.69
2024-01-11T02:23:18.656Z,102874.78
2024-01-11T02:25:45.214Z,102880.53
2024-01-11T02:28:12.474Z,102869.69
2024-01-11T02:30:39.038Z,102865.56
2024-01-11T02:33:06.100Z,102867.50
2024-01-11T02:35:33.128Z,102870.22
2024-01-11T02:38:00.900Z,102863.78
2024-01-11T02:40:27.503Z,102870.72
2024-01-11T02:42:54.025Z,102885.16
2024-01-11T02:45:20.528Z,102884.78
2024-01-11T02:47:47.182Z,102880.84
2024-01-11T02:50:14.028Z,102868.72
2024-01-11T02:52:40.696Z,102858.28
2024-01-11T02:55:07.337Z,102860.19
2024-01-11T02:57:33.948Z,102853.13
2024-01-11T03:00:00.442Z,102847.56
2024-01-11T03:02:27.048Z,102824.53
2024-01-11T03:04:53.660Z,102817.25
2024-01-11T03:07:20.521Z,102832.50
2024-01-11T03:09:47.009Z,102833.59
2024-01-11T03:12:13.492Z,102818.78
2024-01-11T03:14:40.115Z,102833.13
2024-01-11T03:17:06.880Z,102846.56
2024-01-11T03:19:33.563Z,102856.66
2024-01-11T03:22:04.156Z,102856.84
2024-01-11T03:24:30.608Z,102859.53
2024-01-11T03:26:57.183Z,102842.28
2024-01-11T03:29:23.758Z,102839.09
2024-01-11T03:31:50.287Z,102842.56
2024-01-11T03:34:18.183Z,102837.66
2024-01-11T03:36:44.791Z,102829.41
2024-01-11T03:39:11.276Z,102827.97
2024-01-11T03:41:37.842Z,102833.16
2024-01-11T03:44:04.737Z,102814.03
2024-01-11T03:46:31.408Z,102805.94
2024-01-11T03:48:58.149Z,102794.50
2024-01-11T03:51:24.763Z,102792.22
2024-01-11T03:53:51.308Z,102790.75
2024-01-11T03:56:17.986Z,102763.47
2024-01-11T03:58:46.194Z,102758.66
2024-01-11T04:01:13.004Z,102769.63
2024-01-11T04:03:39.925Z,102777.31
2024-01-11T04:06:07.456Z,102781.66
2024-01-11T04:08:34.332Z,102790.94
2024-01-11T04:11:05.281Z,102794.50
2024-01-11T04:13:32.011Z,102792.31
2024-01-11T04:15:58.516Z,102775.06
2024-01-11T04:18:25.526Z,102782.75
2024-01-11T04:20:52.126Z,102785.47
2024-01-11T04:23:18.710Z,102786.50
2024-01-11T04:25:45.348Z,102787.44
2024-01-11T04:28:12.048Z,102784.38
2024-01-11T04:30:38.665Z,102783.59
2024-01-11T04:33:05.467Z,102786.28
2024-01-11T04:35:32.151Z,102781.47
2024-01-11T04:37:58.701Z,102797.50
2024-01-11T04:40:25.292Z,102787.91
2024-01-11T04:42:51.900Z,102796.44
2024-01-11T04:45:18.403Z,102791.72
2024-01-11T04:47:45.073Z,102781.03
2024-01-11T04:50:11.767Z,102788.78
2024-01-11T04:52:38.337Z,102804.84
2024-01-11T04:55:05.059Z,102789.97
2024-01-11T04:57:31.578Z,102778.59
2024-01-11T04:59:59.704Z,102771.31
2024-01-11T05:02:28.838Z,102779.94
2024-01-11T05:04:55.622Z,102772.44
2024-01-11T05:07:22.153Z,102757.56
2024-01-11T05:09:48.625Z,102751.13
2024-01-11T05:12:15.133Z,102732.03
2024-01-11T05:14:41.727Z,102718.81
2024-01-11T05:17:09.056Z,102718.06
2024-01-11T05:19:35.765Z,102729.78
2024-01-11T05:22:02.378Z,102741.56
2024-01-11T05:24:29.361Z,102769.25
2024-01-11T05:26:55.884Z,102756.75
2024-01-11T05:29:22.434Z,102741.81
2024-01-11T05:31:49.280Z,102750.19
2024-01-11T05:34:16.177Z,102739.47
2024-01-11T05:36:42.949Z,102753.88
2024-01-11T05:39:09.457Z,102751.56
2024-01-11T05:41:36.111Z,102763.41
2024-01-11T05:44:02.686Z,102766.06
2024-01-11T05:46:30.519Z,102770.47
2024-01-11T05:48:58.880Z,102778.16
2024-01-11T05:51:25.431Z,102764.09
2024-01-11T05:53:51.961Z,102754.31
2024-01-11T05:56:20.407Z,102751.13
2024-01-11T05:58:46.997Z,102748.78
2024-01-11T06:01:13.809Z,102744.75
2024-01-11T06:03:40.629Z,102739.97
2024-01-11T06:06:08.034Z,102740.91
2024-01-11T06:08:34.730Z,102751.22
2024-01-11T06:11:01.572Z,102742.16
2024-01-11T06:13:28.845Z,102744.81
2024-01-11T06:15:55.367Z,102756.53
2024-01-11T06:18:22.255Z,102756.75
2024-01-11T06:20:49.330Z,102752.75
2024-01-11T06:23:18.085Z,102742.91
2024-01-11T06:25:46.211Z,102730.44
2024-01-11T06:28:13.256Z,102728.88
2024-01-11T06:30:39.913Z,102733.97
2024-01-11T06:33:06.726Z,102725.75
2024-01-11T06:35:33.421Z,102736.81
2024-01-11T06:37:59.998Z,102746.94
2024-01-11T06:40:26.963Z,102743.78
2024-01-11T06:42:53.472Z,102740.44
2024-01-11T06:45:20.662Z,102749.75
2024-01-11T06:47:47.931Z,102741.47
2024-01-11T06:50:14.926Z,102742.50
2024-01-11T06:52:41.537Z,102744.28
2024-01-11T06:55:08.793Z,102733.50
2024-01-11T06:57:35.345Z,102729.34
2024-01-11T07:00:02.057Z,102723.63
2024-01-11T07:02:28.990Z,102722.06
2024-01-11T07:04:55.616Z,102727.25
2024-01-11T07:07:22.145Z,102739.94
2024-01-11T07:09:48.655Z,102719.13
2024-01-11T07:12:15.231Z,102719.25
2024-01-11T07:14:41.879Z,102710.94
2024-01-11T07:17:08.424Z,102712.69
2024-01-11T07:19:35.076Z,102721.94
2024-01-11T07:22:01.630Z,102727.81
2024-01-11T07:24:28.119Z,102730.41
2024-01-11T07:26:54.993Z,102720.50
2024-01-11T07:29:21.878Z,102707.97
2024-01-11T07:31:48.397Z,102721.47
2024-01-11T07:34:15.119Z,102715.69
2024-01-11T07:36:41.721Z,102708.31
2024-01-11T07:39:08.248Z,102697.41
2024-01-11T07:41:34.856Z,102706.75
2024-01-11T07:44:01.524Z,102716.06
2024-01-11T07:46:35.689Z,102715.38
2024-01-11T07:49:06.266Z,102721.34
2024-01-11T07:51:34.088Z,102730.72
2024-01-11T07:54:00.568Z,102740.94
2024-01-11T07:56:27.259Z,102743.59
2024-01-11T07:58:54.231Z,102732.84
2024-01-11T08:01:20.914Z,102716.16
2024-01-11T08:03:48.479Z,102714.66
2024-01-11T08:06:15.324Z,102708.88
2024-01-11T08:08:42.255Z,102693.88
2024-01-11T08:11:08.952Z,102690.59
2024-01-11T08:13:35.917Z,102694.84
2024-01-11T08:16:04.614Z,102716.75
2024-01-11T08:18:34.024Z,102705.16
2024-01-11T08:21:00.578Z,102704.47
2024-01-11T08:23:27.690Z,102702.78
2024-01-11T08:25:54.275Z,102705.31
2024-01-11T08:28:21.695Z,102705.31
2024-01-11T08:30:48.543Z,102714.41
2024-01-11T08:33:15.414Z,102712.69
2024-01-11T08:35:43.053Z,102710.97
2024-01-11T08:38:09.918Z,102720.22
2024-01-11T08:40:36.940Z,102717.78
2024-01-11T08:43:04.371Z,102708.53
2024-01-11T08:45:31.132Z,102700.16
2024-01-11T08:47:58.057Z,102695.13
2024-01-11T08:50:26.016Z,102698.44
2024-01-11T08:52:56.525Z,102705.16
2024-01-11T08:55:23.304Z,102705.22
2024-01-11T08:57:49.804Z,102699.44
2024-01-11T09:00:19.991Z,102692.84
2024-01-11T09:02:47.214Z,102692.13
2024-01-11T09:05:17.490Z,102689.78
2024-01-11T09:07:44.572Z,102692.47
2024-01-11T09:10:12.259Z,102681.00
2024-01-11T09:12:39.339Z,102677.06
2024-01-11T09:15:06.233Z,102682.34
2024-01-11T09:17:33.850Z,102678.41
2024-01-11T09:20:00.739Z,102674.50
2024-01-11T09:22:27.508Z,102673.91
2024-01-11T09:24:54.014Z,102673.34
2024-01-11T09:27:20.567Z,102656.78
2024-01-11T09:29:47.409Z,102659.28
2024-01-11T09:32:14.366Z,102662.69
2024-01-11T09:34:41.038Z,102666.81
2024-01-11T09:37:07.556Z,102666.00
2024-01-11T09:39:34.152Z,102679.38
2024-01-11T09:42:08.399Z,102687.78
2024-01-11T09:44:35.333Z,102676.88
2024-01-11T09:47:03.950Z,102676.81
2024-01-11T09:49:31.961Z,102680.19
2024-01-11T09:51:58.592Z,102678.44
2024-01-11T09:54:26.305Z,102680.19
2024-01-11T09:56:55.961Z,102686.09
2024-01-11T09:59:25.405Z,102689.50
2024-01-11T10:01:52.454Z,102694.53
2024-01-11T10:04:19.030Z,102703.88
2024-01-11T10:06:46.031Z,102704.00
2024-01-11T10:09:14.008Z,102702.44
2024-01-11T10:11:40.586Z,102700.00
2024-01-11T10:14:07.779Z,102697.50
2024-01-11T10:16:34.454Z,102685.94
2024-01-11T10:19:01.208Z,102671.72
2024-01-11T10:21:28.211Z,102667.78
2024-01-11T10:23:54.732Z,102677.31
2024-01-11T10:26:22.642Z,102679.28
2024-01-11T10:28:49.497Z,102682.91
2024-01-11T10:31:19.275Z,102671.41
2024-01-11T10:33:46.378Z,102660.72
2024-01-11T10:36:13.044Z,102653.38
2024-01-11T10:38:40.590Z,102630.97
2024-01-11T10:41:08.135Z,102626.94
2024-01-11T10:43:38.601Z,102622.13
2024-01-11T10:46:07.727Z,102634.16
2024-01-11T10:48:39.032Z,102640.25
2024-01-11T10:51:07.168Z,102643.00
2024-01-11T10:53:47.659Z,102640.59
2024-01-11T10:56:19.466Z,102651.53
2024-01-11T10:58:47.783Z,102651.53
2024-01-11T11:01:14.937Z,102653.25
2024-01-11T11:03:45.459Z,102650.66
2024-01-11T11:06:12.411Z,102643.19
2024-01-11T11:08:39.354Z,102635.63
2024-01-11T11:11:07.352Z,102636.56
2024-01-11T11:13:36.010Z,102643.31
2024-01-11T11:16:04.926Z,102640.03
2024-01-11T11:18:32.460Z,102646.75
2024-01-11T11:20:59.056Z,102634.19
2024-01-11T11:23:25.774Z,102629.97
2024-01-11T11:25:55.187Z,102632.41
2024-01-11T11:28:21.691Z,102631.53
2024-01-11T11:30:50.814Z,102637.28
2024-01-11T11:33:22.984Z,102644.75
2024-01-11T11:35:53.270Z,102671.66
2024-01-11T11:38:24.375Z,102671.66
2024-01-11T11:40:53.609Z,102671.66
2024-01-11T11:43:21.995Z,102683.56
2024-01-11T11:45:49.623Z,102694.50
2024-01-11T11:48:36.719Z,102690.34
2024-01-11T11:51:16.422Z,102681.97
2024-01-11T11:53:46.635Z,102679.53
2024-01-11T11:56:16.068Z,102666.94
2024-01-11T11:58:43.995Z,102662.84
2024-01-11T12:01:10.852Z,102662.13
2024-01-11T12:03:39.624Z,102653.06
2024-01-11T12:06:11.748Z,102653.13
2024-01-11T12:08:38.571Z,102645.72
2024-01-11T12:11:06.512Z,102645.81
2024-01-11T12:13:41.166Z,102651.84
2024-01-11T12:16:07.824Z,102650.34
2024-01-11T12:18:34.702Z,102659.75
2024-01-11T12:21:01.386Z,102652.25
2024-01-11T12:23:31.129Z,102662.44
2024-01-11T12:26:02.697Z,102658.34
2024-01-11T12:28:29.287Z,102654.28
2024-01-11T12:30:55.915Z,102656.09
2024-01-11T12:33:23.343Z,102652.88
2024-01-11T12:35:50.167Z,102635.38
2024-01-11T12:38:16.754Z,102631.22
2024-01-11T12:40:43.370Z,102614.47
2024-01-11T12:43:09.949Z,102615.47
2024-01-11T12:45:36.772Z,102606.31
2024-01-11T12:48:04.777Z,102613.16
2024-01-11T12:50:34.944Z,102614.84
2024-01-11T12:53:21.100Z,102611.53
2024-01-11T12:56:09.391Z,102610.81
2024-01-11T12:58:36.157Z,102609.22
2024-01-11T13:01:03.917Z,102611.72
2024-01-11T13:03:31.663Z,102608.41
2024-01-11T13:05:58.339Z,102599.25
2024-01-11T13:08:25.134Z,102600.25
2024-01-11T13:10:51.754Z,102588.63
2024-01-11T13:13:18.356Z,102596.31
2024-01-11T13:15:46.130Z,102582.94
2024-01-11T13:18:12.904Z,102591.41
2024-01-11T13:20:39.728Z,102580.53
2024-01-11T13:23:17.125Z,102583.91
2024-01-11T13:25:45.572Z,102580.56
2024-01-11T13:28:12.941Z,102569.78
2024-01-11T13:30:42.962Z,102558.84
2024-01-11T13:33:10.654Z,102544.59
2024-01-11T13:35:38.071Z,102552.97
2024-01-11T13:38:05.087Z,102561.41
2024-01-11T13:40:32.293Z,102553.91
2024-01-11T13:42:59.188Z,102533.75
2024-01-11T13:45:26.713Z,102528.84
2024-01-11T13:47:57.153Z,102528.84
2024-01-11T13:50:27.113Z,102536.31
2024-01-11T13:52:54.157Z,102541.31
2024-01-11T13:55:22.897Z,102546.41
2024-01-11T13:57:50.969Z,102539.66
2024-01-11T14:00:19.579Z,102547.28
2024-01-11T14:02:47.579Z,102556.47
2024-01-11T14:05:15.886Z,102562.44
2024-01-11T14:07:43.694Z,102544.81
2024-01-11T14:10:10.573Z,102536.47
2024-01-11T14:12:37.497Z,102539.91
2024-01-11T14:15:05.300Z,102528.97
2024-01-11T14:17:32.880Z,102541.63
2024-01-11T14:20:00.807Z,102551.69
2024-01-11T14:22:27.580Z,102556.72
2024-01-11T14:24:54.162Z,102556.78
2024-01-11T14:27:22.160Z,102564.34
2024-01-11T14:29:49.350Z,102568.66
2024-01-11T14:32:25.600Z,102564.41
2024-01-11T14:35:04.390Z,102558.44
2024-01-11T14:37:34.948Z,102566.00
2024-01-11T14:40:01.610Z,102571.84
2024-01-11T14:42:28.701Z,102572.72
2024-01-11T14:44:55.549Z,102581.09
2024-01-11T14:47:22.561Z,102563.47
2024-01-11T14:49:49.155Z,102560.94
2024-01-11T14:52:17.971Z,102558.44
2024-01-11T14:54:45.015Z,102548.44
2024-01-11T14:57:11.794Z,102547.69
2024-01-11T14:59:38.368Z,102546.88
2024-01-11T15:02:05.842Z,102547.69
2024-01-11T15:04:32.954Z,102556.09
2024-01-11T15:06:59.560Z,102561.09
2024-01-11T15:09:27.157Z,102572.94
2024-01-11T15:11:54.067Z,102570.41
2024-01-11T15:14:20.750Z,102573.81
2024-01-11T15:16:49.134Z,102567.03
2024-01-11T15:19:15.993Z,102583.88
2024-01-11T15:21:47.646Z,102591.50
2024-01-11T15:24:16.939Z,102594.00
2024-01-11T15:26:43.743Z,102585.72
2024-01-11T15:29:10.620Z,102580.69
2024-01-11T15:31:39.782Z,102584.09
2024-01-11T15:34:07.058Z,102581.59
2024-01-11T15:36:33.698Z,102587.53
2024-01-11T15:39:08.236Z,102582.50
2024-01-11T15:41:43.943Z,102579.19
2024-01-11T15:44:10.778Z,102576.69
2024-01-11T15:46:37.303Z,102568.25
2024-01-11T15:49:04.030Z,102567.53
2024-01-11T15:51:30.631Z,102562.47
2024-01-11T15:53:57.361Z,102584.41
2024-01-11T15:56:23.939Z,102576.84
2024-01-11T15:58:50.472Z,102587.78
2024-01-11T16:01:17.048Z,102592.03
2024-01-11T16:03:43.825Z,102597.06
2024-01-11T16:06:10.559Z,102597.19
2024-01-11T16:08:37.283Z,102608.13
2024-01-11T16:11:04.034Z,102606.47
2024-01-11T16:13:30.583Z,102601.44
2024-01-11T16:15:58.288Z,102604.00
2024-01-11T16:18:25.824Z,102599.84
2024-01-11T16:20:53.184Z,102599.84
2024-01-11T16:23:19.854Z,102609.91
2024-01-11T16:25:46.557Z,102615.06
2024-01-11T16:28:13.518Z,102616.81
2024-01-11T16:30:40.086Z,102624.41
2024-01-11T16:33:06.618Z,102632.03
2024-01-11T16:35:38.922Z,102624.47
2024-01-11T16:38:08.140Z,102622.06
2024-01-11T16:40:34.940Z,102622.97
2024-01-11T16:43:01.553Z,102632.25
2024-01-11T16:45:29.847Z,102634.81
2024-01-11T16:47:56.445Z,102636.50
2024-01-11T16:50:24.914Z,102648.34
2024-01-11T16:52:51.428Z,102668.59
2024-01-11T16:55:19.190Z,102661.88
2024-01-11T16:57:45.684Z,102671.25
2024-01-11T17:00:12.711Z,102661.22
2024-01-11T17:02:39.344Z,102664.59
2024-01-11T17:05:06.115Z,102657.94
2024-01-11T17:07:32.717Z,102659.66
2024-01-11T17:09:59.232Z,102654.63
2024-01-11T17:12:27.516Z,102665.63
2024-01-11T17:14:57.524Z,102656.34
2024-01-11T17:17:24.541Z,102647.97
2024-01-11T17:19:51.099Z,102653.94
2024-01-11T17:22:17.814Z,102650.63
2024-01-11T17:24:44.446Z,102652.25
2024-01-11T17:27:15.699Z,102644.75
2024-01-11T17:29:43.167Z,102641.44
2024-01-11T17:32:09.865Z,102646.50
2024-01-11T17:34:36.611Z,102643.16
2024-01-11T17:37:03.150Z,102635.59
2024-01-11T17:39:30.313Z,102633.13
2024-01-11T17:42:00.627Z,102636.56
2024-01-11T17:44:28.569Z,102634.91
2024-01-11T17:46:55.254Z,102650.97
2024-01-11T17:49:21.916Z,102647.63
2024-01-11T17:51:48.648Z,102649.38
2024-01-11T17:54:16.759Z,102650.25
2024-01-11T17:56:43.367Z,102651.13
2024-01-11T17:59:10.263Z,102659.63
2024-01-11T18:01:36.950Z,102658.78
2024-01-11T18:04:03.703Z,102666.44
2024-01-11T18:06:31.229Z,102663.16
2024-01-11T18:08:57.989Z,102659.00
2024-01-11T18:11:24.665Z,102660.69
2024-01-11T18:13:51.214Z,102658.22
2024-01-11T18:16:17.738Z,102659.09
2024-01-11T18:18:44.908Z,102660.00
2024-01-11T18:21:11.578Z,102660.06
2024-01-11T18:23:38.227Z,102663.47
2024-01-11T18:26:04.817Z,102656.75
2024-01-11T18:28:31.370Z,102653.41
2024-01-11T18:30:57.939Z,102645.03
2024-01-11T18:33:26.079Z,102645.13
2024-01-11T18:35:54.502Z,102653.53
2024-01-11T18:38:22.460Z,102641.78
2024-01-11T18:40:49.318Z,102638.44
2024-01-11T18:43:18.644Z,102632.59
2024-01-11T18:45:46.050Z,102636.03
2024-01-11T18:48:13.635Z,102629.31
2024-01-11T18:50:40.591Z,102635.22
2024-01-11T18:53:07.650Z,102647.88
2024-01-11T18:55:34.375Z,102641.19
2024-01-11T18:58:00.938Z,102635.28
2024-01-11T19:00:27.462Z,102630.22
2024-01-11T19:02:54.181Z,102638.72
2024-01-11T19:05:21.095Z,102642.06
2024-01-11T19:07:47.922Z,102649.69
2024-01-11T19:10:14.531Z,102653.84
2024-01-11T19:12:41.126Z,102654.72
2024-01-11T19:15:08.261Z,102658.09
2024-01-11T19:17:35.296Z,102666.53
2024-01-11T19:20:02.306Z,102677.53
2024-01-11T19:22:28.861Z,102673.31
2024-01-11T19:24:55.412Z,102664.06
2024-01-11T19:27:23.240Z,102681.78
2024-01-11T19:29:49.794Z,102681.84
2024-01-11T19:32:16.443Z,102686.97
2024-01-11T19:34:43.302Z,102675.13
2024-01-11T19:37:11.594Z,102672.66
2024-01-11T19:39:38.844Z,102674.38
2024-01-11T19:42:05.465Z,102671.91
2024-01-11T19:44:32.020Z,102675.34
2024-01-11T19:46:58.576Z,102682.94
2024-01-11T19:49:25.307Z,102677.06
2024-01-11T19:51:51.957Z,102677.94
2024-01-11T19:54:18.502Z,102677.13
2024-01-11T19:56:45.087Z,102678.03
2024-01-11T19:59:11.731Z,102686.53
2024-01-11T20:01:38.306Z,102684.88
2024-01-11T20:04:04.989Z,102685.78
2024-01-11T20:06:31.639Z,102684.09
2024-01-11T20:08:59.017Z,102684.09
2024-01-11T20:11:25.610Z,102690.03
2024-01-11T20:13:52.277Z,102701.03
2024-01-11T20:16:18.780Z,102692.59
2024-01-11T20:18:46.009Z,102692.66
2024-01-11T20:21:13.905Z,102694.44
2024-01-11T20:23:44.925Z,102695.22
2024-01-11T20:26:12.681Z,102697.88
2024-01-11T20:28:39.803Z,102710.50
2024-01-11T20:31:06.477Z,102713.94
2024-01-11T20:33:33.253Z,102721.56
2024-01-11T20:36:03.897Z,102724.16
2024-01-11T20:38:32.574Z,102734.31
2024-01-11T20:40:59.100Z,102736.00
2024-01-11T20:43:26.590Z,102726.78
2024-01-11T20:45:53.563Z,102737.75
2024-01-11T20:48:21.157Z,102738.66
2024-01-11T20:50:48.551Z,102737.84
2024-01-11T20:53:15.189Z,102734.53
2024-01-11T20:55:43.823Z,102733.72
2024-01-11T20:58:11.337Z,102732.84
2024-01-11T21:00:38.301Z,102739.69
2024-01-11T21:03:05.029Z,102733.78
2024-01-11T21:05:32.285Z,102737.16
2024-01-11T21:08:01.002Z,102748.97
2024-01-11T21:10:27.767Z,102743.09
2024-01-11T21:12:54.343Z,102751.56
2024-01-11T21:15:20.837Z,102744.78
2024-01-11T21:17:47.636Z,102742.31
2024-01-11T21:20:14.349Z,102739.00
2024-01-11T21:22:41.244Z,102739.00
2024-01-11T21:25:08.040Z,102735.66
2024-01-11T21:27:34.705Z,102735.66
2024-01-11T21:30:01.271Z,102732.31
2024-01-11T21:32:28.252Z,102728.94
2024-01-11T21:34:54.830Z,102730.72
2024-01-11T21:37:21.380Z,102741.69
2024-01-11T21:39:47.879Z,102740.91
2024-01-11T21:42:14.429Z,102741.72
2024-01-11T21:44:40.983Z,102751.00
2024-01-11T21:47:07.527Z,102758.59
2024-01-11T21:49:34.125Z,102759.47
2024-01-11T21:52:00.656Z,102767.91
2024-01-11T21:54:27.154Z,102760.38
2024-01-11T21:56:53.689Z,102773.88
2024-01-11T21:59:20.281Z,102773.06
2024-01-11T22:01:46.873Z,102758.78
2024-01-11T22:04:13.560Z,102763.00
2024-01-11T22:06:40.265Z,102773.97
2024-01-11T22:09:06.808Z,102770.59
2024-01-11T22:11:35.720Z,102768.09
2024-01-11T22:14:05.228Z,102766.41
2024-01-11T22:16:32.421Z,102768.97
2024-01-11T22:18:59.172Z,102763.06
2024-01-11T22:21:28.551Z,102770.72
2024-01-11T22:23:55.953Z,102774.91
2024-01-11T22:26:22.922Z,102781.66
2024-01-11T22:28:49.488Z,102774.94
2024-01-11T22:31:18.259Z,102768.25
2024-01-11T22:33:46.462Z,102775.00
2024-01-11T22:36:13.187Z,102780.06
2024-01-11T22:38:39.721Z,102770.88
2024-01-11T22:41:09.358Z,102774.25
2024-01-11T22:43:35.963Z,102773.44
2024-01-11T22:46:03.314Z,102775.22
2024-01-11T22:48:30.022Z,102776.06
2024-01-11T22:50:56.741Z,102780.28
2024-01-11T22:53:23.354Z,102779.47
2024-01-11T22:55:49.946Z,102787.03
2024-01-11T22:58:16.433Z,102787.03
2024-01-11T23:00:42.999Z,102783.72
2024-01-11T23:03:09.625Z,102782.03
2024-01-11T23:05:36.466Z,102777.81
2024-01-11T23:08:03.340Z,102785.44
2024-01-11T23:10:30.197Z,102781.25
2024-01-11T23:12:56.703Z,102784.63
2024-01-11T23:15:23.467Z,102776.19
2024-01-11T23:17:50.187Z,102785.50
2024-01-11T23:20:16.884Z,102777.94
2024-01-11T23:22:43.559Z,102767.84
2024-01-11T23:25:10.086Z,102775.44
2024-01-11T23:27:36.634Z,102767.06
2024-01-11T23:30:04.124Z,102768.72
2024-01-11T23:32:31.100Z,102766.19
2024-01-11T23:34:58.043Z,102772.13
2024-01-11T23:37:24.692Z,102765.31
2024-01-11T23:39:51.216Z,102761.19
2024-01-11T23:42:17.728Z,102763.72
2024-01-11T23:44:44.421Z,102760.41
2024-01-11T23:47:11.019Z,102757.00
2024-01-11T23:49:37.639Z,102754.53
2024-01-11T23:52:04.318Z,102754.53
2024-01-11T23:54:30.808Z,102761.22
2024-01-11T23:56:57.523Z,102761.22
2024-01-11T23:59:24.727Z,102765.50
